Tulsa International Airport
KTUL : now visible

Airfield :











YOU CAN JOIN US ON...

 
LOGIN :

Register | Disclaimer

   EN    FR    IT 

 









Legend :    VFR   Marginal VFR   IFR   Intensive IFR   Very Intensive IFR
Visi :
Ceiling :
>= 8 km
>= 3000ft
5 to 8 km
1000 to 3000 ft
1500m to 5 km
500 to 1000 ft
800 to 1500m
200 to 500 ft
< 800m
< 200 ft
Symbols :   Thunderstorms  Fog  Heavy snow  Heavy precipitations  Wind > 20 kt







- Airport Elevation : 677 ft
- IATA code : TUL


KTUL - Tulsa International

CURRENT METAR :
  • 260453Z 12004KT 10SM FEW120 23/22 A2979 RMK AO2 SLP079 T02330217 $

EXPIRED METARs :
  • 260353Z 12004KT 10SM CLR 24/22 A2979 RMK AO2 SLP081 T02390217 $
  • 260253Z 12004KT 10SM CLR 24/22 A2980 RMK AO2 SLP084 T02440222 53010 $

TAF KTUL
Valid from the 26 at 00:00 until the 27 at 00:00 UTC


252320Z 2600/2624 14005KT P6SM FEW120 SCT250
FM261500 16012KT P6SM SCT035
No reported NOTAMs for that airfield.



MET'MAP, your aeronautical weather chart ! - Copyright ORBIFLY December 2007 - Disclaimer

ORBIFLY MET'MAP TEAM :

Programming & Development : Alexandra Zaïnal
Concept & Development : Baudouin d'Aumeries
Co-Development & Prog : Marc-Olivier Méhu
Technical & hardware support : Manuel Goepfert

Contact : metmap@orbifly.com




SOURCES & CREDITS :

   NOAA       Earth
Advisory